createdAt,value
2023-03-17T00:01:58.288Z,5.10
2023-03-17T00:04:28.270Z,3.40
2023-03-17T00:06:57.807Z,3.17
2023-03-17T00:09:26.335Z,3.77
2023-03-17T00:11:54.546Z,3.87
2023-03-17T00:14:22.877Z,3.37
2023-03-17T00:16:52.508Z,3.20
2023-03-17T00:19:28.648Z,2.93
2023-03-17T00:21:56.732Z,3.17
2023-03-17T00:24:24.728Z,2.40
2023-03-17T00:26:53.241Z,3.17
2023-03-17T00:29:21.148Z,3.20
2023-03-17T00:31:51.706Z,3.23
2023-03-17T00:34:24.844Z,3.73
2023-03-17T00:36:53.613Z,3.40
2023-03-17T00:39:24.155Z,3.63
2023-03-17T00:41:54.542Z,3.33
2023-03-17T00:44:22.614Z,4.00
2023-03-17T00:46:50.672Z,3.27
2023-03-17T00:49:22.085Z,3.37
2023-03-17T00:51:52.137Z,3.73
2023-03-17T00:54:21.778Z,4.23
2023-03-17T00:56:52.013Z,3.67
2023-03-17T00:59:25.387Z,2.97
2023-03-17T01:01:53.444Z,4.40
2023-03-17T01:04:23.080Z,4.10
2023-03-17T01:06:53.210Z,4.30
2023-03-17T01:09:25.737Z,3.47
2023-03-17T01:11:54.998Z,3.53
2023-03-17T01:14:25.085Z,5.43
2023-03-17T01:16:54.947Z,2.97
2023-03-17T01:19:23.729Z,3.13
2023-03-17T01:21:53.159Z,3.33
2023-03-17T01:24:21.232Z,2.90
2023-03-17T01:26:49.314Z,3.73
2023-03-17T01:29:17.578Z,2.80
2023-03-17T01:31:46.144Z,3.83
2023-03-17T01:34:14.300Z,2.93
2023-03-17T01:36:43.589Z,2.60
2023-03-17T01:39:13.020Z,2.33
2023-03-17T01:41:41.211Z,4.40
2023-03-17T01:44:16.963Z,3.00
2023-03-17T01:46:45.768Z,3.40
2023-03-17T01:49:21.153Z,3.97
2023-03-17T01:51:58.628Z,3.57
2023-03-17T01:54:36.090Z,2.03
2023-03-17T01:57:10.517Z,3.80
2023-03-17T01:59:45.493Z,3.87
2023-03-17T02:02:19.609Z,3.10
2023-03-17T02:04:47.845Z,2.67
2023-03-17T02:07:15.816Z,2.53
2023-03-17T02:09:46.218Z,3.03
2023-03-17T02:12:15.163Z,3.00
2023-03-17T02:14:44.007Z,2.33
2023-03-17T02:17:12.022Z,2.03
2023-03-17T02:19:40.013Z,2.53
2023-03-17T02:22:09.355Z,2.70
2023-03-17T02:24:41.857Z,3.10
2023-03-17T02:27:13.798Z,2.77
2023-03-17T02:29:42.045Z,3.07
2023-03-17T02:32:11.006Z,2.80
2023-03-17T02:34:39.317Z,2.53
2023-03-17T02:37:08.940Z,2.83
2023-03-17T02:39:37.692Z,2.37
2023-03-17T02:42:07.382Z,2.30
2023-03-17T02:44:35.691Z,3.20
2023-03-17T02:47:04.166Z,2.77
2023-03-17T02:49:33.029Z,3.57
2023-03-17T02:52:01.452Z,3.10
2023-03-17T02:54:31.050Z,3.40
2023-03-17T02:56:59.002Z,7.87
2023-03-17T02:59:27.020Z,8.83
2023-03-17T03:01:56.385Z,5.83
2023-03-17T03:04:26.187Z,4.27
2023-03-17T03:06:54.759Z,5.53
2023-03-17T03:09:22.931Z,3.40
2023-03-17T03:11:52.173Z,4.23
2023-03-17T03:14:20.314Z,3.03
2023-03-17T03:16:48.275Z,3.73
2023-03-17T03:19:16.460Z,3.07
2023-03-17T03:21:44.608Z,3.00
2023-03-17T03:24:12.666Z,3.57
2023-03-17T03:26:41.420Z,3.17
2023-03-17T03:29:10.708Z,3.03
2023-03-17T03:31:38.736Z,2.70
2023-03-17T03:34:06.597Z,2.87
2023-03-17T03:36:34.897Z,3.43
2023-03-17T03:39:03.105Z,3.30
2023-03-17T03:41:31.268Z,2.57
2023-03-17T03:43:59.165Z,3.33
2023-03-17T03:46:28.998Z,4.00
2023-03-17T03:48:57.057Z,3.30
2023-03-17T03:51:25.188Z,2.83
2023-03-17T03:53:53.090Z,2.60
2023-03-17T03:56:21.696Z,2.80
2023-03-17T03:58:49.515Z,2.57
2023-03-17T04:01:17.753Z,2.77
2023-03-17T04:03:47.260Z,3.17
2023-03-17T04:06:16.277Z,3.03
2023-03-17T04:08:44.255Z,2.40
2023-03-17T04:11:12.520Z,2.43
2023-03-17T04:13:40.527Z,12.90
2023-03-17T04:16:09.960Z,6.40
2023-03-17T04:18:37.964Z,6.87
2023-03-17T04:21:08.403Z,4.00
2023-03-17T04:23:36.599Z,4.67
2023-03-17T04:26:05.282Z,4.10
2023-03-17T04:28:33.161Z,3.97
2023-03-17T04:31:01.588Z,3.30
2023-03-17T04:33:29.795Z,4.00
2023-03-17T04:35:58.629Z,2.83
2023-03-17T04:38:28.081Z,2.80
2023-03-17T04:40:56.212Z,2.80
2023-03-17T04:43:24.363Z,4.47
2023-03-17T04:45:52.685Z,4.03
2023-03-17T04:48:20.923Z,4.10
2023-03-17T04:50:49.117Z,5.47
2023-03-17T04:53:17.012Z,4.50
2023-03-17T04:55:46.520Z,2.17
2023-03-17T04:58:29.531Z,3.23
2023-03-17T05:00:59.417Z,3.10
2023-03-17T05:03:28.530Z,4.40
2023-03-17T05:05:57.222Z,3.33
2023-03-17T05:08:25.771Z,3.13
2023-03-17T05:10:55.093Z,4.57
2023-03-17T05:13:23.243Z,3.40
2023-03-17T05:15:53.049Z,4.20
2023-03-17T05:18:23.013Z,4.23
2023-03-17T05:20:51.139Z,5.90
2023-03-17T05:23:19.195Z,4.90
2023-03-17T05:25:48.202Z,5.40
2023-03-17T05:28:18.281Z,4.77
2023-03-17T05:30:47.874Z,4.53
2023-03-17T05:33:16.461Z,5.07
2023-03-17T05:35:45.266Z,4.57
2023-03-17T05:38:15.152Z,5.03
2023-03-17T05:40:43.453Z,5.70
2023-03-17T05:43:11.618Z,5.97
2023-03-17T05:45:41.122Z,4.40
2023-03-17T05:48:09.145Z,6.40
2023-03-17T05:50:37.157Z,6.97
2023-03-17T05:53:06.495Z,9.73
2023-03-17T05:55:34.391Z,6.33
2023-03-17T05:58:04.713Z,4.00
2023-03-17T06:00:33.260Z,4.43
2023-03-17T06:03:03.783Z,5.17
2023-03-17T06:05:31.788Z,4.27
2023-03-17T06:07:59.926Z,5.00
2023-03-17T06:10:28.121Z,4.93
2023-03-17T06:12:56.747Z,3.97
2023-03-17T06:15:24.745Z,4.60
2023-03-17T06:17:53.006Z,6.33
2023-03-17T06:20:22.555Z,4.60
2023-03-17T06:23:03.203Z,5.00
2023-03-17T06:25:32.975Z,4.27
2023-03-17T06:28:02.881Z,4.07
2023-03-17T06:30:31.298Z,5.63
2023-03-17T06:33:00.038Z,5.77
2023-03-17T06:35:30.044Z,7.73
2023-03-17T06:37:58.266Z,8.47
2023-03-17T06:40:26.411Z,9.27
2023-03-17T06:42:54.713Z,8.17
2023-03-17T06:45:22.611Z,6.47
2023-03-17T06:47:50.780Z,7.80
2023-03-17T06:50:19.023Z,7.17
2023-03-17T06:52:48.574Z,7.60
2023-03-17T06:55:17.465Z,7.50
2023-03-17T06:57:45.902Z,7.17
2023-03-17T07:00:15.776Z,6.53
2023-03-17T07:02:44.150Z,6.60
2023-03-17T07:05:13.842Z,7.23
2023-03-17T07:07:42.641Z,5.83
2023-03-17T07:10:13.707Z,5.97
2023-03-17T07:12:42.862Z,5.33
2023-03-17T07:15:12.441Z,8.37
2023-03-17T07:17:40.710Z,9.47
2023-03-17T07:20:09.925Z,7.50
2023-03-17T07:22:38.100Z,9.73
2023-03-17T07:25:06.830Z,7.37
2023-03-17T07:27:36.719Z,7.33
2023-03-17T07:30:05.561Z,5.07
2023-03-17T07:32:35.247Z,6.10
2023-03-17T07:35:04.810Z,5.23
2023-03-17T07:37:32.933Z,10.17
2023-03-17T07:40:01.040Z,33.63
2023-03-17T07:42:30.368Z,28.03
2023-03-17T07:44:59.786Z,16.27
2023-03-17T07:47:27.675Z,11.53
2023-03-17T07:49:55.746Z,12.27
2023-03-17T07:52:23.752Z,13.30
2023-03-17T07:54:53.054Z,10.67
2023-03-17T07:57:21.974Z,6.43
2023-03-17T07:59:50.564Z,7.03
2023-03-17T08:02:21.090Z,6.30
2023-03-17T08:04:50.235Z,6.43
2023-03-17T08:07:18.355Z,5.27
2023-03-17T08:09:46.720Z,5.13
2023-03-17T08:12:15.258Z,5.60
2023-03-17T08:14:43.347Z,4.77
2023-03-17T08:17:11.701Z,5.10
2023-03-17T08:19:41.063Z,5.27
2023-03-17T08:22:09.583Z,6.63
2023-03-17T08:24:39.544Z,4.70
2023-03-17T08:27:07.884Z,5.83
2023-03-17T08:29:36.056Z,5.00
2023-03-17T08:32:04.321Z,6.20
2023-03-17T08:34:32.527Z,6.37
2023-03-17T08:37:02.755Z,5.00
2023-03-17T08:39:31.810Z,5.53
2023-03-17T08:41:59.855Z,5.83
2023-03-17T08:44:28.230Z,4.73
2023-03-17T08:46:56.304Z,7.60
2023-03-17T08:49:24.572Z,4.17
2023-03-17T08:51:53.176Z,4.97
2023-03-17T08:54:23.130Z,3.43
2023-03-17T08:56:51.106Z,3.37
2023-03-17T08:59:19.784Z,3.73
2023-03-17T09:01:47.802Z,3.90
2023-03-17T09:04:16.857Z,3.10
2023-03-17T09:07:01.707Z,2.63
2023-03-17T09:09:32.312Z,3.07
2023-03-17T09:12:02.925Z,2.40
2023-03-17T09:14:37.419Z,4.07
2023-03-17T09:17:11.651Z,3.33
2023-03-17T09:19:40.384Z,3.30
2023-03-17T09:22:08.835Z,3.03
2023-03-17T09:24:38.625Z,3.75
2023-03-17T09:27:07.099Z,4.05
2023-03-17T09:29:35.608Z,3.47
2023-03-17T09:32:03.698Z,3.42
2023-03-17T09:34:31.755Z,3.17
2023-03-17T09:37:00.750Z,3.25
2023-03-17T09:39:30.075Z,3.92
2023-03-17T09:42:21.325Z,3.22
2023-03-17T09:45:05.761Z,3.75
2023-03-17T09:47:52.504Z,3.13
2023-03-17T09:50:25.481Z,3.38
2023-03-17T09:52:56.807Z,2.55
2023-03-17T09:55:28.689Z,2.85
2023-03-17T09:58:00.700Z,3.97
2023-03-17T10:00:31.302Z,2.85
2023-03-17T10:03:00.142Z,3.50
2023-03-17T10:05:31.469Z,3.63
2023-03-17T10:08:18.961Z,2.60
2023-03-17T10:11:02.003Z,3.42
2023-03-17T10:13:47.340Z,2.67
2023-03-17T10:16:19.301Z,3.25
2023-03-17T10:18:53.087Z,3.38
2023-03-17T10:21:26.692Z,3.22
2023-03-17T10:23:56.237Z,2.55
2023-03-17T10:26:31.243Z,3.30
2023-03-17T10:29:04.031Z,2.88
2023-03-17T10:31:34.895Z,2.95
2023-03-17T10:34:14.720Z,2.47
2023-03-17T10:36:46.061Z,3.17
2023-03-17T10:39:15.782Z,5.82
2023-03-17T10:41:55.631Z,3.60
2023-03-17T10:44:40.981Z,4.20
2023-03-17T10:47:24.167Z,2.72
2023-03-17T10:49:53.376Z,3.53
2023-03-17T10:52:27.510Z,3.63
2023-03-17T10:54:55.893Z,2.50
2023-03-17T10:57:24.334Z,2.93
2023-03-17T10:59:56.701Z,2.63
2023-03-17T11:02:27.906Z,3.45
2023-03-17T11:05:01.724Z,3.70
2023-03-17T11:07:35.759Z,2.13
2023-03-17T11:10:06.524Z,2.42
2023-03-17T11:12:39.435Z,2.85
2023-03-17T11:15:14.401Z,3.50
2023-03-17T11:17:52.428Z,3.07
2023-03-17T11:20:34.256Z,3.07
2023-03-17T11:23:07.725Z,4.47
2023-03-17T11:25:41.921Z,2.87
2023-03-17T11:28:19.972Z,4.30
2023-03-17T11:31:02.328Z,2.70
2023-03-17T11:33:36.968Z,3.77
2023-03-17T11:36:17.196Z,3.47
2023-03-17T11:38:57.937Z,3.13
2023-03-17T11:41:50.984Z,3.40
2023-03-17T11:44:40.518Z,3.03
2023-03-17T11:47:23.509Z,3.03
2023-03-17T11:50:00.242Z,3.60
2023-03-17T11:52:33.480Z,3.20
2023-03-17T11:55:13.736Z,4.30
2023-03-17T11:57:47.636Z,3.00
2023-03-17T12:00:22.658Z,3.07
2023-03-17T12:02:59.490Z,2.63
2023-03-17T12:05:29.928Z,4.30
2023-03-17T12:08:00.743Z,2.20
2023-03-17T12:10:35.080Z,2.87
2023-03-17T12:13:08.305Z,4.17
2023-03-17T12:15:40.871Z,3.00
2023-03-17T12:18:16.077Z,3.40
2023-03-17T12:20:52.112Z,3.70
2023-03-17T12:23:29.921Z,3.40
2023-03-17T12:26:03.838Z,2.80
2023-03-17T12:28:36.675Z,3.67
2023-03-17T12:31:07.815Z,3.17
2023-03-17T12:33:43.898Z,2.93
2023-03-17T12:36:17.068Z,2.93
2023-03-17T12:38:48.300Z,3.60
2023-03-17T12:41:34.433Z,3.23
2023-03-17T12:44:12.152Z,3.80
2023-03-17T12:47:12.497Z,2.63
2023-03-17T12:50:12.479Z,4.03
2023-03-17T12:52:54.030Z,3.50
2023-03-17T12:55:26.879Z,2.80
2023-03-17T12:58:03.365Z,2.23
2023-03-17T13:00:33.392Z,2.57
2023-03-17T13:03:20.222Z,5.00
2023-03-17T13:05:53.065Z,4.37
2023-03-17T13:08:26.045Z,2.57
2023-03-17T13:11:20.174Z,3.40
2023-03-17T13:13:59.389Z,2.83
2023-03-17T13:16:32.626Z,3.77
2023-03-17T13:19:20.017Z,1.80
2023-03-17T13:21:53.235Z,3.43
2023-03-17T13:24:48.111Z,5.50
2023-03-17T13:27:45.199Z,2.97
2023-03-17T13:30:46.795Z,3.27
2023-03-17T13:33:24.569Z,3.13
2023-03-17T13:36:10.696Z,2.53
2023-03-17T13:39:04.900Z,2.20
2023-03-17T13:42:05.478Z,1.90
2023-03-17T13:44:57.997Z,2.43
2023-03-17T13:47:35.241Z,2.47
2023-03-17T13:50:09.751Z,2.70
2023-03-17T13:52:44.181Z,3.30
2023-03-17T13:55:38.555Z,2.97
2023-03-17T13:58:34.516Z,2.80
2023-03-17T14:01:09.032Z,2.83
2023-03-17T14:03:43.417Z,2.00
2023-03-17T14:06:13.390Z,2.47
2023-03-17T14:08:47.302Z,3.00
2023-03-17T14:11:28.270Z,2.43
2023-03-17T14:14:32.047Z,3.20
2023-03-17T14:17:09.643Z,4.63
2023-03-17T14:19:41.374Z,2.90
2023-03-17T14:22:23.577Z,4.07
2023-03-17T14:24:55.529Z,3.00
2023-03-17T14:27:25.409Z,2.47
2023-03-17T14:29:53.721Z,3.17
2023-03-17T14:32:26.336Z,2.83
2023-03-17T14:34:59.374Z,3.90
2023-03-17T14:37:28.960Z,2.77
2023-03-17T14:39:58.901Z,2.33
2023-03-17T14:42:28.346Z,3.60
2023-03-17T14:45:04.190Z,2.77
2023-03-17T14:47:39.727Z,2.73
2023-03-17T14:50:15.372Z,4.80
2023-03-17T14:52:43.799Z,3.50
2023-03-17T14:55:15.466Z,2.73
2023-03-17T14:57:43.529Z,2.83
2023-03-17T15:00:31.743Z,2.30
2023-03-17T15:03:03.436Z,2.67
2023-03-17T15:05:39.036Z,3.07
2023-03-17T15:08:30.138Z,3.63
2023-03-17T15:11:00.109Z,4.40
2023-03-17T15:13:29.864Z,1.77
2023-03-17T15:15:59.017Z,2.80
2023-03-17T15:18:28.884Z,4.60
2023-03-17T15:20:58.435Z,2.13
2023-03-17T15:23:30.520Z,4.93
2023-03-17T15:25:58.746Z,2.97
2023-03-17T15:28:33.526Z,5.07
2023-03-17T15:31:13.447Z,2.80
2023-03-17T15:33:43.398Z,3.37
2023-03-17T15:36:31.307Z,2.33
2023-03-17T15:39:01.150Z,2.23
2023-03-17T15:41:29.201Z,2.53
2023-03-17T15:43:57.374Z,2.70
2023-03-17T15:46:30.738Z,3.00
2023-03-17T15:49:00.731Z,4.00
2023-03-17T15:51:28.757Z,4.77
2023-03-17T15:53:56.842Z,3.40
2023-03-17T15:56:24.770Z,3.80
2023-03-17T15:58:53.061Z,4.90
2023-03-17T16:01:21.592Z,3.33
2023-03-17T16:03:50.485Z,3.63
2023-03-17T16:06:22.439Z,3.63
2023-03-17T16:08:50.939Z,2.93
2023-03-17T16:11:20.394Z,3.10
2023-03-17T16:13:48.550Z,4.47
2023-03-17T16:16:25.511Z,3.03
2023-03-17T16:18:53.857Z,4.57
2023-03-17T16:21:23.465Z,3.20
2023-03-17T16:23:51.473Z,3.13
2023-03-17T16:26:19.697Z,4.20
2023-03-17T16:28:49.334Z,4.57
2023-03-17T16:31:26.594Z,3.07
2023-03-17T16:33:55.551Z,3.20
2023-03-17T16:36:26.282Z,4.30
2023-03-17T16:38:54.647Z,4.23
2023-03-17T16:41:24.560Z,4.60
2023-03-17T16:43:55.421Z,3.07
2023-03-17T16:46:24.553Z,4.87
2023-03-17T16:48:52.745Z,4.50
2023-03-17T16:51:21.647Z,3.87
2023-03-17T16:53:50.823Z,3.73
2023-03-17T16:56:21.954Z,4.77
2023-03-17T16:58:50.239Z,3.30
2023-03-17T17:01:21.005Z,4.60
2023-03-17T17:03:49.528Z,5.93
2023-03-17T17:06:18.790Z,5.43
2023-03-17T17:08:48.442Z,5.30
2023-03-17T17:11:19.408Z,6.50
2023-03-17T17:13:48.598Z,4.80
2023-03-17T17:16:21.898Z,5.23
2023-03-17T17:18:50.348Z,4.93
2023-03-17T17:21:18.471Z,3.17
2023-03-17T17:23:46.650Z,3.07
2023-03-17T17:26:15.081Z,3.90
2023-03-17T17:28:44.333Z,3.73
2023-03-17T17:31:12.594Z,4.50
2023-03-17T17:33:41.186Z,3.30
2023-03-17T17:36:15.467Z,4.57
2023-03-17T17:38:43.910Z,4.97
2023-03-17T17:41:13.345Z,4.23
2023-03-17T17:43:42.155Z,4.27
2023-03-17T17:46:14.933Z,4.93
2023-03-17T17:48:43.228Z,7.03
2023-03-17T17:51:11.198Z,7.00
2023-03-17T17:53:39.463Z,5.37
2023-03-17T17:56:08.271Z,4.70
2023-03-17T17:58:36.510Z,4.80
2023-03-17T18:01:05.503Z,5.43
2023-03-17T18:03:35.033Z,5.97
2023-03-17T18:06:02.938Z,6.23
2023-03-17T18:08:30.893Z,6.17
2023-03-17T18:10:58.731Z,5.23
2023-03-17T18:13:27.266Z,5.57
2023-03-17T18:15:55.290Z,5.17
2023-03-17T18:18:23.790Z,5.63
2023-03-17T18:20:54.228Z,6.43
2023-03-17T18:23:23.034Z,6.70
2023-03-17T18:25:51.967Z,7.43
2023-03-17T18:28:20.049Z,9.83
2023-03-17T18:30:47.999Z,6.30
2023-03-17T18:33:19.751Z,9.00
2023-03-17T18:35:50.796Z,6.37
2023-03-17T18:38:20.403Z,6.10
2023-03-17T18:40:48.452Z,8.10
2023-03-17T18:43:16.704Z,7.67
2023-03-17T18:45:44.685Z,7.27
2023-03-17T18:48:12.871Z,8.67
2023-03-17T18:50:40.759Z,7.87
2023-03-17T18:53:08.888Z,9.37
2023-03-17T18:55:38.325Z,8.53
2023-03-17T18:58:06.786Z,7.80
2023-03-17T19:00:35.429Z,9.37
2023-03-17T19:03:03.442Z,6.83
2023-03-17T19:05:31.846Z,8.93
2023-03-17T19:07:59.718Z,8.20
2023-03-17T19:10:27.822Z,7.43
2023-03-17T19:12:58.762Z,9.23
2023-03-17T19:15:27.554Z,8.73
2023-03-17T19:17:55.768Z,5.93
2023-03-17T19:20:23.997Z,6.30
2023-03-17T19:22:53.181Z,6.30
2023-03-17T19:25:21.762Z,8.47
2023-03-17T19:27:49.717Z,7.30
2023-03-17T19:30:19.601Z,6.93
2023-03-17T19:32:47.558Z,7.03
2023-03-17T19:35:15.611Z,7.03
2023-03-17T19:37:43.667Z,7.17
2023-03-17T19:40:13.438Z,6.03
2023-03-17T19:42:41.557Z,4.80
2023-03-17T19:45:10.873Z,5.83
2023-03-17T19:47:40.692Z,5.23
2023-03-17T19:50:11.126Z,4.43
2023-03-17T19:52:39.168Z,6.00
2023-03-17T19:55:09.505Z,5.37
2023-03-17T19:57:37.723Z,4.73
2023-03-17T20:00:08.858Z,6.93
2023-03-17T20:02:38.122Z,7.50
2023-03-17T20:05:08.743Z,6.27
2023-03-17T20:07:37.189Z,4.87
2023-03-17T20:10:06.669Z,6.77
2023-03-17T20:12:37.856Z,7.13
2023-03-17T20:15:08.587Z,4.10
2023-03-17T20:17:37.290Z,6.50
2023-03-17T20:20:09.414Z,6.23
2023-03-17T20:22:37.630Z,10.97
2023-03-17T20:25:06.549Z,13.57
2023-03-17T20:27:35.851Z,11.73
2023-03-17T20:30:05.442Z,9.60
2023-03-17T20:32:34.442Z,10.07
2023-03-17T20:35:02.773Z,8.23
2023-03-17T20:37:32.240Z,7.50
2023-03-17T20:40:02.639Z,6.73
2023-03-17T20:42:30.490Z,5.97
2023-03-17T20:44:58.986Z,6.53
2023-03-17T20:47:28.164Z,7.33
2023-03-17T20:49:58.956Z,7.27
2023-03-17T20:52:30.077Z,7.60
2023-03-17T20:55:00.230Z,7.27
2023-03-17T20:57:28.821Z,6.83
2023-03-17T20:59:58.127Z,5.63
2023-03-17T21:02:26.059Z,6.33
2023-03-17T21:04:54.230Z,5.80
2023-03-17T21:07:23.291Z,9.33
2023-03-17T21:09:51.913Z,12.60
2023-03-17T21:12:21.622Z,9.73
2023-03-17T21:14:49.910Z,9.83
2023-03-17T21:17:18.240Z,9.13
2023-03-17T21:19:47.455Z,6.47
2023-03-17T21:22:17.691Z,6.47
2023-03-17T21:24:45.693Z,8.53
2023-03-17T21:27:14.302Z,8.60
2023-03-17T21:29:43.519Z,6.87
2023-03-17T21:32:11.775Z,7.00
2023-03-17T21:34:39.968Z,9.87
2023-03-17T21:37:07.889Z,12.70
2023-03-17T21:39:36.167Z,16.07
2023-03-17T21:42:09.875Z,10.83
2023-03-17T21:44:38.390Z,10.37
2023-03-17T21:47:07.916Z,9.80
2023-03-17T21:49:35.901Z,8.93
2023-03-17T21:52:04.473Z,8.23
2023-03-17T21:54:32.493Z,6.60
2023-03-17T21:57:00.706Z,7.80
2023-03-17T21:59:30.757Z,6.83
2023-03-17T22:01:59.636Z,7.93
2023-03-17T22:04:29.296Z,8.23
2023-03-17T22:06:59.103Z,6.60
2023-03-17T22:09:27.717Z,5.13
2023-03-17T22:11:55.613Z,6.03
2023-03-17T22:14:23.550Z,6.63
2023-03-17T22:16:52.332Z,5.67
2023-03-17T22:19:21.385Z,5.07
2023-03-17T22:21:51.696Z,5.53
2023-03-17T22:24:20.445Z,5.90
2023-03-17T22:26:49.118Z,4.37
2023-03-17T22:29:17.077Z,5.17
2023-03-17T22:31:45.747Z,5.87
2023-03-17T22:34:13.808Z,6.13
2023-03-17T22:36:42.248Z,5.80
2023-03-17T22:39:11.801Z,5.97
2023-03-17T22:41:39.947Z,11.20
2023-03-17T22:44:09.176Z,9.80
2023-03-17T22:46:37.694Z,13.97
2023-03-17T22:49:06.676Z,11.27
2023-03-17T22:51:34.846Z,39.43
2023-03-17T22:54:02.969Z,27.80
2023-03-17T22:56:32.443Z,53.77
2023-03-17T22:59:00.599Z,34.60
2023-03-17T23:01:28.699Z,19.67
2023-03-17T23:03:57.005Z,9.87
2023-03-17T23:06:25.816Z,11.13
2023-03-17T23:08:53.879Z,11.80
2023-03-17T23:11:23.564Z,12.27
2023-03-17T23:13:54.072Z,9.77
2023-03-17T23:16:22.936Z,8.47
2023-03-17T23:18:51.442Z,6.10
2023-03-17T23:21:27.602Z,5.90
2023-03-17T23:23:56.056Z,5.63
2023-03-17T23:26:24.160Z,5.23
2023-03-17T23:28:53.410Z,5.37
2023-03-17T23:31:22.652Z,5.70
2023-03-17T23:33:51.682Z,3.43
2023-03-17T23:36:20.010Z,3.23
2023-03-17T23:38:48.512Z,4.80
2023-03-17T23:41:17.455Z,3.63
2023-03-17T23:43:46.596Z,4.27
2023-03-17T23:46:17.367Z,5.07
2023-03-17T23:48:45.595Z,5.07
2023-03-17T23:51:14.418Z,3.33
2023-03-17T23:53:42.889Z,4.80
2023-03-17T23:56:13.172Z,4.57
2023-03-17T23:58:42.304Z,4.87
